Terminal Aerodrome Forecast
Issued by NWS Atlanta, GA

Home | Current Version | Previous Version | Text Only | Print | Product List | Glossary On
Versions: 1 2 3 4 5 6 7 8 9 10 11 12 13 14 15 16 17 18 19 20 21 22 23 24 25 26 27 28 29 30 31 32 33 34 35 36
751
FTUS42 KFFC 281720
TAFATL
TAF
KATL 281720Z 2818/2924 06010KT P6SM VCSH SCT035 BKN050
     FM290100 06007KT P6SM SCT250
     FM291400 07010KT P6SM SCT045=

USA.gov is the U.S. government's official web portal to all federal, state and local government web resources and services.